createdAt,value
2017-10-07T00:00:32.466Z,12.40
2017-10-07T00:03:06.580Z,12.70
2017-10-07T00:05:39.272Z,13.02
2017-10-07T00:08:11.199Z,12.55
2017-10-07T00:10:42.637Z,13.12
2017-10-07T00:13:13.695Z,13.47
2017-10-07T00:15:45.144Z,13.11
2017-10-07T00:18:18.698Z,13.19
2017-10-07T00:20:52.853Z,13.49
2017-10-07T00:23:23.845Z,13.43
2017-10-07T00:25:55.433Z,13.41
2017-10-07T00:28:26.782Z,13.90
2017-10-07T00:30:58.133Z,13.70
2017-10-07T00:33:29.808Z,13.53
2017-10-07T00:36:02.186Z,13.78
2017-10-07T00:38:33.632Z,13.40
2017-10-07T00:41:05.334Z,13.65
2017-10-07T00:43:37.955Z,13.57
2017-10-07T00:46:10.373Z,13.15
2017-10-07T00:48:52.046Z,12.83
2017-10-07T00:51:24.459Z,13.30
2017-10-07T00:53:56.762Z,13.33
2017-10-07T00:56:31.789Z,13.44
2017-10-07T00:59:03.989Z,13.38
2017-10-07T01:01:37.181Z,13.37
2017-10-07T01:04:08.964Z,13.41
2017-10-07T01:06:41.523Z,13.19
2017-10-07T01:09:14.206Z,12.71
2017-10-07T01:11:46.616Z,12.67
2017-10-07T01:14:17.636Z,12.68
2017-10-07T01:16:49.970Z,12.72
2017-10-07T01:19:22.025Z,13.09
2017-10-07T01:21:53.062Z,13.19
2017-10-07T01:24:24.904Z,12.38
2017-10-07T01:26:56.935Z,13.09
2017-10-07T01:29:29.915Z,12.95
2017-10-07T01:32:01.319Z,12.87
2017-10-07T01:34:55.999Z,13.31
2017-10-07T01:37:27.202Z,12.86
2017-10-07T01:40:01.187Z,12.63
2017-10-07T01:42:32.847Z,12.83
2017-10-07T01:45:04.765Z,13.17
2017-10-07T01:47:37.992Z,13.28
2017-10-07T01:50:09.319Z,13.20
2017-10-07T01:52:40.465Z,13.04
2017-10-07T01:55:12.574Z,13.13
2017-10-07T01:57:43.801Z,13.27
2017-10-07T02:00:15.768Z,12.62
2017-10-07T02:02:48.212Z,12.64
2017-10-07T02:05:20.218Z,12.70
2017-10-07T02:07:52.070Z,13.08
2017-10-07T02:10:24.229Z,13.11
2017-10-07T02:12:56.722Z,13.08
2017-10-07T02:15:28.665Z,13.64
2017-10-07T02:18:01.287Z,13.49
2017-10-07T02:20:33.863Z,13.07
2017-10-07T02:23:05.938Z,12.62
2017-10-07T02:25:37.538Z,12.57
2017-10-07T02:28:09.234Z,12.50
2017-10-07T02:30:40.554Z,12.07
2017-10-07T02:33:11.841Z,12.50
2017-10-07T02:35:42.938Z,12.33
2017-10-07T02:38:14.315Z,12.36
2017-10-07T02:40:45.562Z,12.13
2017-10-07T02:43:16.482Z,11.85
2017-10-07T02:45:48.121Z,12.14
2017-10-07T02:48:18.971Z,12.47
2017-10-07T02:50:50.254Z,11.63
2017-10-07T02:53:21.164Z,11.96
2017-10-07T02:55:52.019Z,12.11
2017-10-07T02:58:23.133Z,12.03
2017-10-07T03:00:54.071Z,11.93
2017-10-07T03:03:25.001Z,12.07
2017-10-07T03:05:56.331Z,12.12
2017-10-07T03:08:32.182Z,12.08
2017-10-07T03:11:15.785Z,12.48
2017-10-07T03:13:47.114Z,12.50
2017-10-07T03:16:18.301Z,12.34
2017-10-07T03:18:50.344Z,12.41
2017-10-07T03:21:22.166Z,12.62
2017-10-07T03:23:53.849Z,12.58
2017-10-07T03:26:28.346Z,12.53
2017-10-07T03:29:02.757Z,11.69
2017-10-07T03:31:38.699Z,12.39
2017-10-07T03:34:09.799Z,11.95
2017-10-07T03:36:42.135Z,12.21
2017-10-07T03:39:13.697Z,12.66
2017-10-07T03:41:45.757Z,12.58
2017-10-07T03:44:20.458Z,12.58
2017-10-07T03:46:52.516Z,12.93
2017-10-07T03:49:23.688Z,12.81
2017-10-07T03:51:55.716Z,13.12
2017-10-07T03:54:26.974Z,12.07
